sensor_id;sensor_type;location;lat;lon;timestamp;temperature;humidity
76168;DHT22;64927;48.214;16.378;2023-06-14T00:01:52;17.30;52.70
76168;DHT22;64927;48.214;16.378;2023-06-14T00:04:17;17.30;52.80
76168;DHT22;64927;48.214;16.378;2023-06-14T00:06:44;17.20;53.00
76168;DHT22;64927;48.214;16.378;2023-06-14T00:09:14;17.20;54.00
76168;DHT22;64927;48.214;16.378;2023-06-14T00:11:40;17.10;53.60
76168;DHT22;64927;48.214;16.378;2023-06-14T00:14:06;17.10;53.40
76168;DHT22;64927;48.214;16.378;2023-06-14T00:16:32;17.10;53.40
76168;DHT22;64927;48.214;16.378;2023-06-14T00:19:02;17.10;53.60
76168;DHT22;64927;48.214;16.378;2023-06-14T00:21:29;17.00;54.00
76168;DHT22;64927;48.214;16.378;2023-06-14T00:23:58;17.00;53.90
76168;DHT22;64927;48.214;16.378;2023-06-14T00:26:23;17.00;53.70
76168;DHT22;64927;48.214;16.378;2023-06-14T00:28:51;17.00;53.90
76168;DHT22;64927;48.214;16.378;2023-06-14T00:31:16;16.90;53.80
76168;DHT22;64927;48.214;16.378;2023-06-14T00:33:42;16.80;54.30
76168;DHT22;64927;48.214;16.378;2023-06-14T00:36:10;16.80;54.60
76168;DHT22;64927;48.214;16.378;2023-06-14T00:38:35;16.70;54.60
76168;DHT22;64927;48.214;16.378;2023-06-14T00:41:03;16.70;54.80
76168;DHT22;64927;48.214;16.378;2023-06-14T00:43:29;16.70;54.50
76168;DHT22;64927;48.214;16.378;2023-06-14T00:45:55;16.60;54.80
76168;DHT22;64927;48.214;16.378;2023-06-14T00:48:20;16.60;54.80
76168;DHT22;64927;48.214;16.378;2023-06-14T00:50:49;16.70;54.80
76168;DHT22;64927;48.214;16.378;2023-06-14T00:53:16;16.70;54.90
76168;DHT22;64927;48.214;16.378;2023-06-14T00:55:49;16.60;54.70
76168;DHT22;64927;48.214;16.378;2023-06-14T00:58:15;16.60;54.60
76168;DHT22;64927;48.214;16.378;2023-06-14T01:00:44;16.60;54.80
76168;DHT22;64927;48.214;16.378;2023-06-14T01:03:09;16.60;55.20
76168;DHT22;64927;48.214;16.378;2023-06-14T01:05:40;16.60;55.10
76168;DHT22;64927;48.214;16.378;2023-06-14T01:13:32;16.50;55.80
76168;DHT22;64927;48.214;16.378;2023-06-14T01:15:59;16.40;56.00
76168;DHT22;64927;48.214;16.378;2023-06-14T01:18:24;16.40;55.70
76168;DHT22;64927;48.214;16.378;2023-06-14T01:20:51;16.40;56.10
76168;DHT22;64927;48.214;16.378;2023-06-14T01:23:21;16.40;56.10
76168;DHT22;64927;48.214;16.378;2023-06-14T01:25:48;16.40;56.00
76168;DHT22;64927;48.214;16.378;2023-06-14T01:28:19;16.30;56.30
76168;DHT22;64927;48.214;16.378;2023-06-14T01:30:48;16.30;56.20
76168;DHT22;64927;48.214;16.378;2023-06-14T01:33:18;16.30;56.10
76168;DHT22;64927;48.214;16.378;2023-06-14T01:35:47;16.30;56.10
76168;DHT22;64927;48.214;16.378;2023-06-14T01:38:14;16.20;56.50
76168;DHT22;64927;48.214;16.378;2023-06-14T01:40:41;16.10;56.60
76168;DHT22;64927;48.214;16.378;2023-06-14T01:43:08;16.20;56.50
76168;DHT22;64927;48.214;16.378;2023-06-14T01:45:35;16.20;56.60
76168;DHT22;64927;48.214;16.378;2023-06-14T01:48:04;16.20;56.40
76168;DHT22;64927;48.214;16.378;2023-06-14T01:50:31;16.10;56.70
76168;DHT22;64927;48.214;16.378;2023-06-14T01:52:57;16.10;56.50
76168;DHT22;64927;48.214;16.378;2023-06-14T01:55:23;16.10;56.80
76168;DHT22;64927;48.214;16.378;2023-06-14T01:57:50;16.10;56.50
76168;DHT22;64927;48.214;16.378;2023-06-14T02:00:16;16.10;56.70
76168;DHT22;64927;48.214;16.378;2023-06-14T02:02:43;16.20;56.60
76168;DHT22;64927;48.214;16.378;2023-06-14T02:05:09;16.20;56.40
76168;DHT22;64927;48.214;16.378;2023-06-14T02:07:35;16.30;56.20
76168;DHT22;64927;48.214;16.378;2023-06-14T02:10:04;16.40;55.70
76168;DHT22;64927;48.214;16.378;2023-06-14T02:12:30;16.40;55.70
76168;DHT22;64927;48.214;16.378;2023-06-14T02:14:56;16.50;55.60
76168;DHT22;64927;48.214;16.378;2023-06-14T02:17:22;16.40;55.60
76168;DHT22;64927;48.214;16.378;2023-06-14T02:19:48;16.40;55.90
76168;DHT22;64927;48.214;16.378;2023-06-14T02:22:14;16.20;56.20
76168;DHT22;64927;48.214;16.378;2023-06-14T02:24:43;16.20;56.50
76168;DHT22;64927;48.214;16.378;2023-06-14T02:27:08;16.20;56.10
76168;DHT22;64927;48.214;16.378;2023-06-14T02:29:36;16.30;55.90
76168;DHT22;64927;48.214;16.378;2023-06-14T02:32:02;16.30;56.10
76168;DHT22;64927;48.214;16.378;2023-06-14T02:34:28;16.20;56.40
76168;DHT22;64927;48.214;16.378;2023-06-14T02:36:53;16.30;56.10
76168;DHT22;64927;48.214;16.378;2023-06-14T02:39:20;16.20;56.30
76168;DHT22;64927;48.214;16.378;2023-06-14T02:41:48;16.20;56.30
76168;DHT22;64927;48.214;16.378;2023-06-14T02:44:14;16.20;56.10
76168;DHT22;64927;48.214;16.378;2023-06-14T02:46:40;16.20;56.20
76168;DHT22;64927;48.214;16.378;2023-06-14T02:49:06;16.30;56.00
76168;DHT22;64927;48.214;16.378;2023-06-14T02:51:32;16.30;56.00
76168;DHT22;64927;48.214;16.378;2023-06-14T02:53:57;16.30;56.00
76168;DHT22;64927;48.214;16.378;2023-06-14T02:56:23;16.20;56.20
76168;DHT22;64927;48.214;16.378;2023-06-14T02:58:48;16.10;56.30
76168;DHT22;64927;48.214;16.378;2023-06-14T03:01:14;16.10;56.70
76168;DHT22;64927;48.214;16.378;2023-06-14T03:03:40;16.10;56.50
76168;DHT22;64927;48.214;16.378;2023-06-14T03:06:08;16.10;56.70
76168;DHT22;64927;48.214;16.378;2023-06-14T03:08:34;16.20;56.40
76168;DHT22;64927;48.214;16.378;2023-06-14T03:11:04;16.20;57.30
76168;DHT22;64927;48.214;16.378;2023-06-14T03:13:34;16.20;56.10
76168;DHT22;64927;48.214;16.378;2023-06-14T03:16:00;16.30;55.80
76168;DHT22;64927;48.214;16.378;2023-06-14T03:18:29;16.40;55.60
76168;DHT22;64927;48.214;16.378;2023-06-14T03:21:03;16.40;55.80
76168;DHT22;64927;48.214;16.378;2023-06-14T03:23:29;16.30;56.00
76168;DHT22;64927;48.214;16.378;2023-06-14T03:25:57;16.30;55.60
76168;DHT22;64927;48.214;16.378;2023-06-14T03:28:23;16.50;55.40
76168;DHT22;64927;48.214;16.378;2023-06-14T03:30:48;16.60;55.20
76168;DHT22;64927;48.214;16.378;2023-06-14T03:33:14;16.70;54.80
76168;DHT22;64927;48.214;16.378;2023-06-14T03:35:40;16.70;54.50
76168;DHT22;64927;48.214;16.378;2023-06-14T03:38:06;16.70;54.20
76168;DHT22;64927;48.214;16.378;2023-06-14T03:40:32;16.80;54.00
76168;DHT22;64927;48.214;16.378;2023-06-14T03:43:00;16.80;54.10
76168;DHT22;64927;48.214;16.378;2023-06-14T03:45:26;16.90;54.00
76168;DHT22;64927;48.214;16.378;2023-06-14T03:47:51;16.90;53.80
76168;DHT22;64927;48.214;16.378;2023-06-14T03:50:18;17.00;53.90
76168;DHT22;64927;48.214;16.378;2023-06-14T03:52:46;17.00;53.70
76168;DHT22;64927;48.214;16.378;2023-06-14T03:55:14;17.00;53.50
76168;DHT22;64927;48.214;16.378;2023-06-14T03:57:44;17.00;53.70
76168;DHT22;64927;48.214;16.378;2023-06-14T04:00:12;17.00;53.60
76168;DHT22;64927;48.214;16.378;2023-06-14T04:02:40;17.10;53.30
76168;DHT22;64927;48.214;16.378;2023-06-14T04:05:06;17.10;53.10
76168;DHT22;64927;48.214;16.378;2023-06-14T04:07:34;17.10;52.90
76168;DHT22;64927;48.214;16.378;2023-06-14T04:10:06;17.10;53.00
76168;DHT22;64927;48.214;16.378;2023-06-14T04:12:32;17.30;52.90
76168;DHT22;64927;48.214;16.378;2023-06-14T04:14:57;17.40;52.30
76168;DHT22;64927;48.214;16.378;2023-06-14T04:17:23;17.40;52.40
76168;DHT22;64927;48.214;16.378;2023-06-14T04:19:51;17.30;52.50
76168;DHT22;64927;48.214;16.378;2023-06-14T04:22:19;17.20;52.80
76168;DHT22;64927;48.214;16.378;2023-06-14T04:24:45;17.10;53.40
76168;DHT22;64927;48.214;16.378;2023-06-14T04:27:11;17.20;53.40
76168;DHT22;64927;48.214;16.378;2023-06-14T04:29:37;17.30;52.80
76168;DHT22;64927;48.214;16.378;2023-06-14T04:32:05;17.50;52.70
76168;DHT22;64927;48.214;16.378;2023-06-14T04:34:31;17.40;52.20
76168;DHT22;64927;48.214;16.378;2023-06-14T04:37:00;17.30;52.20
76168;DHT22;64927;48.214;16.378;2023-06-14T04:39:26;17.20;52.80
76168;DHT22;64927;48.214;16.378;2023-06-14T04:41:53;17.20;52.70
76168;DHT22;64927;48.214;16.378;2023-06-14T04:44:23;17.20;52.90
76168;DHT22;64927;48.214;16.378;2023-06-14T04:46:58;17.30;52.80
76168;DHT22;64927;48.214;16.378;2023-06-14T04:49:25;17.40;52.50
76168;DHT22;64927;48.214;16.378;2023-06-14T04:51:53;17.50;52.50
76168;DHT22;64927;48.214;16.378;2023-06-14T04:54:23;17.60;52.20
76168;DHT22;64927;48.214;16.378;2023-06-14T04:56:51;17.50;52.50
76168;DHT22;64927;48.214;16.378;2023-06-14T04:59:18;17.50;53.00
76168;DHT22;64927;48.214;16.378;2023-06-14T05:01:47;17.60;52.60
76168;DHT22;64927;48.214;16.378;2023-06-14T05:04:16;17.50;52.60
76168;DHT22;64927;48.214;16.378;2023-06-14T05:06:42;17.50;53.00
76168;DHT22;64927;48.214;16.378;2023-06-14T05:09:13;17.50;52.80
76168;DHT22;64927;48.214;16.378;2023-06-14T05:11:39;17.50;52.10
76168;DHT22;64927;48.214;16.378;2023-06-14T05:14:07;17.40;52.50
76168;DHT22;64927;48.214;16.378;2023-06-14T05:16:35;17.50;52.70
76168;DHT22;64927;48.214;16.378;2023-06-14T05:19:01;17.80;52.20
76168;DHT22;64927;48.214;16.378;2023-06-14T05:21:27;17.90;50.80
76168;DHT22;64927;48.214;16.378;2023-06-14T05:23:52;18.00;49.90
76168;DHT22;64927;48.214;16.378;2023-06-14T05:26:19;18.00;49.90
76168;DHT22;64927;48.214;16.378;2023-06-14T05:28:45;17.90;50.30
76168;DHT22;64927;48.214;16.378;2023-06-14T05:31:13;17.70;51.40
76168;DHT22;64927;48.214;16.378;2023-06-14T05:33:38;17.90;51.20
76168;DHT22;64927;48.214;16.378;2023-06-14T05:36:04;17.90;50.40
76168;DHT22;64927;48.214;16.378;2023-06-14T05:38:30;18.10;50.40
76168;DHT22;64927;48.214;16.378;2023-06-14T05:40:55;18.30;49.90
76168;DHT22;64927;48.214;16.378;2023-06-14T05:43:21;18.10;49.80
76168;DHT22;64927;48.214;16.378;2023-06-14T05:45:47;18.10;50.60
76168;DHT22;64927;48.214;16.378;2023-06-14T05:48:12;18.40;50.60
76168;DHT22;64927;48.214;16.378;2023-06-14T05:50:38;18.50;49.70
76168;DHT22;64927;48.214;16.378;2023-06-14T05:53:03;18.90;48.90
76168;DHT22;64927;48.214;16.378;2023-06-14T05:55:31;19.10;47.40
76168;DHT22;64927;48.214;16.378;2023-06-14T05:57:57;19.20;47.90
76168;DHT22;64927;48.214;16.378;2023-06-14T06:00:22;19.20;47.80
76168;DHT22;64927;48.214;16.378;2023-06-14T06:02:48;19.70;46.90
76168;DHT22;64927;48.214;16.378;2023-06-14T06:05:14;19.90;45.80
76168;DHT22;64927;48.214;16.378;2023-06-14T06:07:43;20.20;44.60
76168;DHT22;64927;48.214;16.378;2023-06-14T06:10:11;20.30;44.50
76168;DHT22;64927;48.214;16.378;2023-06-14T06:12:37;20.70;42.80
76168;DHT22;64927;48.214;16.378;2023-06-14T06:15:03;20.90;41.60
76168;DHT22;64927;48.214;16.378;2023-06-14T06:17:29;21.30;41.40
76168;DHT22;64927;48.214;16.378;2023-06-14T06:19:55;21.40;40.70
76168;DHT22;64927;48.214;16.378;2023-06-14T06:22:20;21.70;41.60
76168;DHT22;64927;48.214;16.378;2023-06-14T06:24:47;21.90;40.40
76168;DHT22;64927;48.214;16.378;2023-06-14T06:27:12;22.20;40.90
76168;DHT22;64927;48.214;16.378;2023-06-14T06:29:42;22.60;38.40
76168;DHT22;64927;48.214;16.378;2023-06-14T06:32:09;23.10;39.40
76168;DHT22;64927;48.214;16.378;2023-06-14T06:34:34;23.60;37.40
76168;DHT22;64927;48.214;16.378;2023-06-14T06:37:02;23.70;37.00
76168;DHT22;64927;48.214;16.378;2023-06-14T06:39:28;23.80;35.80
76168;DHT22;64927;48.214;16.378;2023-06-14T06:41:53;23.70;35.70
76168;DHT22;64927;48.214;16.378;2023-06-14T06:44:19;23.40;36.60
76168;DHT22;64927;48.214;16.378;2023-06-14T06:46:45;23.40;37.00
76168;DHT22;64927;48.214;16.378;2023-06-14T06:49:10;23.70;37.50
76168;DHT22;64927;48.214;16.378;2023-06-14T06:51:37;24.00;36.60
76168;DHT22;64927;48.214;16.378;2023-06-14T06:54:03;24.30;35.20
76168;DHT22;64927;48.214;16.378;2023-06-14T06:56:28;24.00;34.30
76168;DHT22;64927;48.214;16.378;2023-06-14T06:58:54;23.70;35.40
76168;DHT22;64927;48.214;16.378;2023-06-14T07:01:22;24.00;36.50
76168;DHT22;64927;48.214;16.378;2023-06-14T07:03:51;24.30;34.90
76168;DHT22;64927;48.214;16.378;2023-06-14T07:06:17;24.40;34.10
76168;DHT22;64927;48.214;16.378;2023-06-14T07:08:46;24.60;34.00
76168;DHT22;64927;48.214;16.378;2023-06-14T07:11:14;25.00;33.40
76168;DHT22;64927;48.214;16.378;2023-06-14T07:13:39;24.60;32.10
76168;DHT22;64927;48.214;16.378;2023-06-14T07:16:05;24.20;34.50
76168;DHT22;64927;48.214;16.378;2023-06-14T07:18:31;25.00;34.60
76168;DHT22;64927;48.214;16.378;2023-06-14T07:20:57;25.40;33.70
76168;DHT22;64927;48.214;16.378;2023-06-14T07:23:25;25.80;32.30
76168;DHT22;64927;48.214;16.378;2023-06-14T07:25:51;25.60;32.60
76168;DHT22;64927;48.214;16.378;2023-06-14T07:28:17;26.00;31.60
76168;DHT22;64927;48.214;16.378;2023-06-14T07:30:44;25.80;31.80
76168;DHT22;64927;48.214;16.378;2023-06-14T07:33:09;25.60;32.60
76168;DHT22;64927;48.214;16.378;2023-06-14T07:35:36;25.60;31.50
76168;DHT22;64927;48.214;16.378;2023-06-14T07:38:02;25.30;32.10
76168;DHT22;64927;48.214;16.378;2023-06-14T07:40:28;25.10;32.30
76168;DHT22;64927;48.214;16.378;2023-06-14T07:42:53;25.40;32.50
76168;DHT22;64927;48.214;16.378;2023-06-14T07:45:20;25.80;31.60
76168;DHT22;64927;48.214;16.378;2023-06-14T07:47:48;25.70;31.90
76168;DHT22;64927;48.214;16.378;2023-06-14T07:50:13;24.90;33.10
76168;DHT22;64927;48.214;16.378;2023-06-14T07:52:39;24.80;33.70
76168;DHT22;64927;48.214;16.378;2023-06-14T07:55:05;24.50;34.20
76168;DHT22;64927;48.214;16.378;2023-06-14T07:57:31;24.40;34.40
76168;DHT22;64927;48.214;16.378;2023-06-14T07:59:58;24.90;33.90
76168;DHT22;64927;48.214;16.378;2023-06-14T08:02:24;25.30;33.50
76168;DHT22;64927;48.214;16.378;2023-06-14T08:04:52;25.50;32.50
76168;DHT22;64927;48.214;16.378;2023-06-14T08:07:17;25.20;32.30
76168;DHT22;64927;48.214;16.378;2023-06-14T08:09:45;24.30;34.50
76168;DHT22;64927;48.214;16.378;2023-06-14T08:12:11;24.00;34.40
76168;DHT22;64927;48.214;16.378;2023-06-14T08:14:39;24.40;34.30
76168;DHT22;64927;48.214;16.378;2023-06-14T08:17:05;24.80;34.10
76168;DHT22;64927;48.214;16.378;2023-06-14T08:19:31;25.30;32.40
76168;DHT22;64927;48.214;16.378;2023-06-14T08:21:59;25.10;33.30
76168;DHT22;64927;48.214;16.378;2023-06-14T08:24:25;25.80;31.90
76168;DHT22;64927;48.214;16.378;2023-06-14T08:26:54;25.60;31.90
76168;DHT22;64927;48.214;16.378;2023-06-14T08:29:19;25.70;31.50
76168;DHT22;64927;48.214;16.378;2023-06-14T08:31:47;25.60;31.50
76168;DHT22;64927;48.214;16.378;2023-06-14T08:34:15;25.10;32.00
76168;DHT22;64927;48.214;16.378;2023-06-14T08:36:41;25.20;32.30
76168;DHT22;64927;48.214;16.378;2023-06-14T08:39:07;25.40;32.50
76168;DHT22;64927;48.214;16.378;2023-06-14T08:41:34;25.80;31.50
76168;DHT22;64927;48.214;16.378;2023-06-14T08:44:00;25.80;30.70
76168;DHT22;64927;48.214;16.378;2023-06-14T08:46:27;25.30;32.40
76168;DHT22;64927;48.214;16.378;2023-06-14T08:48:55;25.40;31.20
76168;DHT22;64927;48.214;16.378;2023-06-14T08:51:25;25.40;33.10
76168;DHT22;64927;48.214;16.378;2023-06-14T08:53:59;25.50;31.50
76168;DHT22;64927;48.214;16.378;2023-06-14T08:56:30;25.50;31.00
76168;DHT22;64927;48.214;16.378;2023-06-14T08:58:57;25.10;31.50
76168;DHT22;64927;48.214;16.378;2023-06-14T09:01:25;24.70;32.00
76168;DHT22;64927;48.214;16.378;2023-06-14T09:03:52;24.70;32.40
76168;DHT22;64927;48.214;16.378;2023-06-14T09:06:20;24.60;32.00
76168;DHT22;64927;48.214;16.378;2023-06-14T09:08:50;24.60;32.50
76168;DHT22;64927;48.214;16.378;2023-06-14T09:11:17;24.70;32.80
76168;DHT22;64927;48.214;16.378;2023-06-14T09:13:48;24.80;32.50
76168;DHT22;64927;48.214;16.378;2023-06-14T09:16:14;25.40;32.40
76168;DHT22;64927;48.214;16.378;2023-06-14T09:18:44;26.10;31.50
76168;DHT22;64927;48.214;16.378;2023-06-14T09:21:14;26.20;29.90
76168;DHT22;64927;48.214;16.378;2023-06-14T09:23:41;25.80;30.40
76168;DHT22;64927;48.214;16.378;2023-06-14T09:26:19;24.90;31.30
76168;DHT22;64927;48.214;16.378;2023-06-14T09:28:47;25.20;31.90
76168;DHT22;64927;48.214;16.378;2023-06-14T09:31:24;25.40;31.60
76168;DHT22;64927;48.214;16.378;2023-06-14T09:33:50;25.60;31.40
76168;DHT22;64927;48.214;16.378;2023-06-14T09:36:23;25.60;31.60
76168;DHT22;64927;48.214;16.378;2023-06-14T09:41:19;25.60;31.70
76168;DHT22;64927;48.214;16.378;2023-06-14T09:43:46;26.00;32.00
76168;DHT22;64927;48.214;16.378;2023-06-14T09:46:15;26.50;31.10
76168;DHT22;64927;48.214;16.378;2023-06-14T09:48:41;27.00;30.40
76168;DHT22;64927;48.214;16.378;2023-06-14T09:51:10;27.50;29.70
76168;DHT22;64927;48.214;16.378;2023-06-14T09:53:42;27.60;29.00
76168;DHT22;64927;48.214;16.378;2023-06-14T09:56:10;27.30;28.80
76168;DHT22;64927;48.214;16.378;2023-06-14T09:58:39;27.20;29.90
76168;DHT22;64927;48.214;16.378;2023-06-14T10:01:08;27.10;29.20
76168;DHT22;64927;48.214;16.378;2023-06-14T10:03:38;27.20;29.50
76168;DHT22;64927;48.214;16.378;2023-06-14T10:06:05;26.50;29.90
76168;DHT22;64927;48.214;16.378;2023-06-14T10:08:33;25.90;30.20
76168;DHT22;64927;48.214;16.378;2023-06-14T10:11:02;25.60;30.90
76168;DHT22;64927;48.214;16.378;2023-06-14T10:13:31;25.60;31.10
76168;DHT22;64927;48.214;16.378;2023-06-14T10:16:20;26.00;31.20
76168;DHT22;64927;48.214;16.378;2023-06-14T10:21:32;26.00;30.30
76168;DHT22;64927;48.214;16.378;2023-06-14T10:24:03;25.70;31.10
76168;DHT22;64927;48.214;16.378;2023-06-14T10:26:29;25.80;31.20
76168;DHT22;64927;48.214;16.378;2023-06-14T10:29:07;25.60;31.30
76168;DHT22;64927;48.214;16.378;2023-06-14T10:31:49;25.40;31.30
76168;DHT22;64927;48.214;16.378;2023-06-14T10:34:31;25.40;31.30
76168;DHT22;64927;48.214;16.378;2023-06-14T10:37:02;25.20;31.00
76168;DHT22;64927;48.214;16.378;2023-06-14T10:39:32;25.00;31.50
76168;DHT22;64927;48.214;16.378;2023-06-14T10:41:58;24.90;31.70
76168;DHT22;64927;48.214;16.378;2023-06-14T10:46:56;24.80;32.10
76168;DHT22;64927;48.214;16.378;2023-06-14T10:49:42;24.50;32.70
76168;DHT22;64927;48.214;16.378;2023-06-14T10:52:09;24.40;32.40
76168;DHT22;64927;48.214;16.378;2023-06-14T10:54:55;24.40;32.70
76168;DHT22;64927;48.214;16.378;2023-06-14T10:57:20;24.50;32.80
76168;DHT22;64927;48.214;16.378;2023-06-14T10:59:46;24.50;32.30
76168;DHT22;64927;48.214;16.378;2023-06-14T11:02:23;24.70;32.30
76168;DHT22;64927;48.214;16.378;2023-06-14T11:04:53;24.70;31.60
76168;DHT22;64927;48.214;16.378;2023-06-14T11:12:49;24.80;31.30
76168;DHT22;64927;48.214;16.378;2023-06-14T11:15:17;25.00;30.60
76168;DHT22;64927;48.214;16.378;2023-06-14T11:17:54;24.80;30.20
76168;DHT22;64927;48.214;16.378;2023-06-14T11:20:25;24.90;30.00
76168;DHT22;64927;48.214;16.378;2023-06-14T11:22:51;24.80;29.80
76168;DHT22;64927;48.214;16.378;2023-06-14T11:25:17;24.60;30.60
76168;DHT22;64927;48.214;16.378;2023-06-14T11:27:44;24.80;30.40
76168;DHT22;64927;48.214;16.378;2023-06-14T11:30:10;24.70;30.50
76168;DHT22;64927;48.214;16.378;2023-06-14T11:32:37;24.70;30.70
76168;DHT22;64927;48.214;16.378;2023-06-14T11:35:05;25.10;30.80
76168;DHT22;64927;48.214;16.378;2023-06-14T11:37:36;25.60;30.00
76168;DHT22;64927;48.214;16.378;2023-06-14T11:40:08;25.50;29.50
76168;DHT22;64927;48.214;16.378;2023-06-14T11:42:35;25.30;29.80
76168;DHT22;64927;48.214;16.378;2023-06-14T11:45:07;25.30;29.60
76168;DHT22;64927;48.214;16.378;2023-06-14T11:47:37;25.30;29.60
76168;DHT22;64927;48.214;16.378;2023-06-14T11:50:05;25.30;29.80
76168;DHT22;64927;48.214;16.378;2023-06-14T11:52:32;25.10;30.10
76168;DHT22;64927;48.214;16.378;2023-06-14T11:54:58;25.30;30.20
76168;DHT22;64927;48.214;16.378;2023-06-14T11:57:26;25.40;29.70
76168;DHT22;64927;48.214;16.378;2023-06-14T11:59:52;25.50;29.80
76168;DHT22;64927;48.214;16.378;2023-06-14T12:02:18;25.60;29.00
76168;DHT22;64927;48.214;16.378;2023-06-14T12:04:47;25.60;28.70
76168;DHT22;64927;48.214;16.378;2023-06-14T12:07:17;25.50;29.20
76168;DHT22;64927;48.214;16.378;2023-06-14T12:12:17;24.90;29.30
76168;DHT22;64927;48.214;16.378;2023-06-14T12:14:43;24.70;30.00
76168;DHT22;64927;48.214;16.378;2023-06-14T12:17:08;24.60;29.70
76168;DHT22;64927;48.214;16.378;2023-06-14T12:19:42;24.70;29.60
76168;DHT22;64927;48.214;16.378;2023-06-14T12:22:13;24.80;29.70
76168;DHT22;64927;48.214;16.378;2023-06-14T12:24:42;24.70;29.60
76168;DHT22;64927;48.214;16.378;2023-06-14T12:27:11;24.60;29.70
76168;DHT22;64927;48.214;16.378;2023-06-14T12:29:44;24.70;30.60
76168;DHT22;64927;48.214;16.378;2023-06-14T12:32:10;24.80;30.70
76168;DHT22;64927;48.214;16.378;2023-06-14T12:34:38;25.20;30.30
76168;DHT22;64927;48.214;16.378;2023-06-14T12:37:03;25.30;29.90
76168;DHT22;64927;48.214;16.378;2023-06-14T12:39:30;25.10;30.00
76168;DHT22;64927;48.214;16.378;2023-06-14T12:41:58;25.20;30.00
76168;DHT22;64927;48.214;16.378;2023-06-14T12:44:24;24.90;30.30
76168;DHT22;64927;48.214;16.378;2023-06-14T12:46:50;24.60;31.00
76168;DHT22;64927;48.214;16.378;2023-06-14T12:49:18;24.50;30.60
76168;DHT22;64927;48.214;16.378;2023-06-14T12:51:45;24.60;30.80
76168;DHT22;64927;48.214;16.378;2023-06-14T12:54:11;24.30;30.70
76168;DHT22;64927;48.214;16.378;2023-06-14T12:56:37;24.30;31.10
76168;DHT22;64927;48.214;16.378;2023-06-14T12:59:03;24.30;31.10
76168;DHT22;64927;48.214;16.378;2023-06-14T13:01:28;24.20;31.10
76168;DHT22;64927;48.214;16.378;2023-06-14T13:03:54;24.30;31.10
76168;DHT22;64927;48.214;16.378;2023-06-14T13:06:23;24.20;31.50
76168;DHT22;64927;48.214;16.378;2023-06-14T13:08:49;24.20;30.90
76168;DHT22;64927;48.214;16.378;2023-06-14T13:11:15;24.10;31.30
76168;DHT22;64927;48.214;16.378;2023-06-14T13:13:41;24.10;31.60
76168;DHT22;64927;48.214;16.378;2023-06-14T13:16:09;24.10;31.50
76168;DHT22;64927;48.214;16.378;2023-06-14T13:18:39;24.10;31.30
76168;DHT22;64927;48.214;16.378;2023-06-14T13:21:05;24.10;31.70
76168;DHT22;64927;48.214;16.378;2023-06-14T13:23:33;23.90;31.60
76168;DHT22;64927;48.214;16.378;2023-06-14T13:25:59;23.70;32.10
76168;DHT22;64927;48.214;16.378;2023-06-14T13:28:26;23.90;31.70
76168;DHT22;64927;48.214;16.378;2023-06-14T13:30:52;24.00;31.70
76168;DHT22;64927;48.214;16.378;2023-06-14T13:33:18;24.10;31.70
76168;DHT22;64927;48.214;16.378;2023-06-14T13:35:43;24.30;31.80
76168;DHT22;64927;48.214;16.378;2023-06-14T13:38:10;24.30;31.10
76168;DHT22;64927;48.214;16.378;2023-06-14T13:40:36;24.20;31.60
76168;DHT22;64927;48.214;16.378;2023-06-14T13:43:02;24.30;31.70
76168;DHT22;64927;48.214;16.378;2023-06-14T13:45:27;24.50;31.30
76168;DHT22;64927;48.214;16.378;2023-06-14T13:47:53;24.80;30.90
76168;DHT22;64927;48.214;16.378;2023-06-14T13:50:22;25.10;30.80
76168;DHT22;64927;48.214;16.378;2023-06-14T13:52:50;25.30;31.30
76168;DHT22;64927;48.214;16.378;2023-06-14T13:55:16;25.50;30.40
76168;DHT22;64927;48.214;16.378;2023-06-14T13:57:44;25.60;29.60
76168;DHT22;64927;48.214;16.378;2023-06-14T14:00:11;25.50;29.50
76168;DHT22;64927;48.214;16.378;2023-06-14T14:02:37;25.30;29.80
76168;DHT22;64927;48.214;16.378;2023-06-14T14:05:03;25.40;30.50
76168;DHT22;64927;48.214;16.378;2023-06-14T14:07:29;25.50;29.70
76168;DHT22;64927;48.214;16.378;2023-06-14T14:09:55;25.70;29.80
76168;DHT22;64927;48.214;16.378;2023-06-14T14:12:23;25.50;29.40
76168;DHT22;64927;48.214;16.378;2023-06-14T14:14:49;25.40;30.00
76168;DHT22;64927;48.214;16.378;2023-06-14T14:17:15;25.60;29.90
76168;DHT22;64927;48.214;16.378;2023-06-14T14:19:43;25.60;29.80
76168;DHT22;64927;48.214;16.378;2023-06-14T14:22:09;25.50;30.10
76168;DHT22;64927;48.214;16.378;2023-06-14T14:24:34;25.70;29.50
76168;DHT22;64927;48.214;16.378;2023-06-14T14:27:02;25.60;29.40
76168;DHT22;64927;48.214;16.378;2023-06-14T14:29:28;25.40;30.00
76168;DHT22;64927;48.214;16.378;2023-06-14T14:31:59;25.30;29.80
76168;DHT22;64927;48.214;16.378;2023-06-14T14:34:27;25.30;30.60
76168;DHT22;64927;48.214;16.378;2023-06-14T14:36:53;25.10;30.20
76168;DHT22;64927;48.214;16.378;2023-06-14T14:39:21;24.90;30.70
76168;DHT22;64927;48.214;16.378;2023-06-14T14:41:47;24.80;30.80
76168;DHT22;64927;48.214;16.378;2023-06-14T14:44:12;24.60;31.00
76168;DHT22;64927;48.214;16.378;2023-06-14T14:46:38;24.60;31.10
76168;DHT22;64927;48.214;16.378;2023-06-14T14:49:06;24.40;31.50
76168;DHT22;64927;48.214;16.378;2023-06-14T14:51:32;24.30;31.80
76168;DHT22;64927;48.214;16.378;2023-06-14T14:53:59;24.20;31.60
76168;DHT22;64927;48.214;16.378;2023-06-14T14:56:25;24.10;31.70
76168;DHT22;64927;48.214;16.378;2023-06-14T14:58:53;24.10;32.30
76168;DHT22;64927;48.214;16.378;2023-06-14T15:01:19;24.10;31.90
76168;DHT22;64927;48.214;16.378;2023-06-14T15:03:45;24.20;31.80
76168;DHT22;64927;48.214;16.378;2023-06-14T15:06:10;24.20;31.70
76168;DHT22;64927;48.214;16.378;2023-06-14T15:08:40;24.40;31.90
76168;DHT22;64927;48.214;16.378;2023-06-14T15:11:06;24.60;31.70
76168;DHT22;64927;48.214;16.378;2023-06-14T15:13:32;24.80;31.30
76168;DHT22;64927;48.214;16.378;2023-06-14T15:15:57;24.80;31.00
76168;DHT22;64927;48.214;16.378;2023-06-14T15:18:26;24.90;31.20
76168;DHT22;64927;48.214;16.378;2023-06-14T15:20:51;24.70;31.20
76168;DHT22;64927;48.214;16.378;2023-06-14T15:23:22;24.70;31.60
76168;DHT22;64927;48.214;16.378;2023-06-14T15:25:48;24.80;31.30
76168;DHT22;64927;48.214;16.378;2023-06-14T15:28:14;24.70;31.00
76168;DHT22;64927;48.214;16.378;2023-06-14T15:30:42;24.60;31.20
76168;DHT22;64927;48.214;16.378;2023-06-14T15:33:08;24.50;30.40
76168;DHT22;64927;48.214;16.378;2023-06-14T15:35:33;24.50;31.00
76168;DHT22;64927;48.214;16.378;2023-06-14T15:37:59;24.50;30.50